createdAt,value
2022-09-05T00:04:24.538Z,101897.00
2022-09-05T00:09:55.765Z,101905.53
2022-09-05T00:15:17.120Z,101909.34
2022-09-05T00:24:27.421Z,101906.91
2022-09-05T00:26:28.740Z,101905.50
2022-09-05T00:31:55.346Z,101910.28
2022-09-05T00:36:59.638Z,101915.72
2022-09-05T00:42:07.482Z,101907.41
2022-09-05T00:47:23.353Z,101904.00
2022-09-05T00:52:33.036Z,101898.25
2022-09-05T00:57:43.196Z,101901.28
2022-09-05T01:03:20.903Z,101899.13
2022-09-05T01:14:27.288Z,101895.44
2022-09-05T01:19:41.439Z,101897.59
2022-09-05T01:25:11.380Z,101901.06
2022-09-05T01:30:48.952Z,101898.59
2022-09-05T01:36:03.769Z,101898.72
2022-09-05T01:41:37.162Z,101903.84
2022-09-05T01:46:56.922Z,101895.88
2022-09-05T01:52:30.545Z,101900.78
2022-09-05T01:57:32.895Z,101873.63
2022-09-05T02:02:35.367Z,101906.09
2022-09-05T02:08:09.726Z,101915.00
2022-09-05T02:13:30.658Z,101912.47
2022-09-05T02:18:55.002Z,101913.56
2022-09-05T02:24:18.960Z,101912.72
2022-09-05T02:29:42.594Z,101911.63
2022-09-05T02:34:55.968Z,101920.19
2022-09-05T02:45:01.649Z,101920.75
2022-09-05T02:45:34.858Z,101920.66
2022-09-05T02:57:29.659Z,101937.00
2022-09-05T02:57:35.089Z,101937.72
2022-09-05T03:01:58.054Z,101933.19
2022-09-05T03:07:33.189Z,101939.28
2022-09-05T03:12:50.556Z,101934.66
2022-09-05T03:17:53.671Z,101936.41
2022-09-05T03:23:14.527Z,101941.53
2022-09-05T03:28:53.435Z,101939.00
2022-09-05T03:34:19.525Z,101934.69
2022-09-05T03:40:00.668Z,101937.00
2022-09-05T03:45:37.804Z,101942.09
2022-09-05T03:55:59.947Z,101937.69
2022-09-05T03:57:23.589Z,101945.19
2022-09-05T04:05:15.224Z,101950.63
2022-09-05T04:08:17.766Z,101948.56
2022-09-05T04:13:06.763Z,101945.56
2022-09-05T04:18:18.245Z,101953.97
2022-09-05T04:23:52.513Z,101955.09
2022-09-05T04:29:22.660Z,101962.72
2022-09-05T04:34:37.007Z,101966.97
2022-09-05T04:39:39.558Z,101976.81
2022-09-05T04:44:48.868Z,101977.91
2022-09-05T04:50:00.033Z,101968.63
2022-09-05T04:55:09.405Z,101979.84
2022-09-05T05:06:02.543Z,101984.66
2022-09-05T05:06:45.118Z,101967.59
2022-09-05T05:18:03.590Z,101975.16
2022-09-05T05:18:13.565Z,101983.41
2022-09-05T05:23:09.639Z,101989.59
2022-09-05T05:28:24.522Z,101984.47
2022-09-05T05:33:36.071Z,101982.84
2022-09-05T05:38:46.324Z,101996.41
2022-09-05T05:43:50.213Z,101993.66
2022-09-05T05:48:57.238Z,101989.03
2022-09-05T05:54:06.491Z,102000.28
2022-09-05T05:59:08.854Z,102000.00
2022-09-05T06:04:41.409Z,102002.44
2022-09-05T06:14:49.504Z,101996.31
2022-09-05T06:15:41.102Z,102000.47
2022-09-05T06:22:10.059Z,101996.91
2022-09-05T06:26:44.913Z,101997.06
2022-09-05T06:31:54.530Z,101994.34
2022-09-05T06:37:24.254Z,102000.31
2022-09-05T06:42:43.512Z,102003.19
2022-09-05T06:47:47.942Z,101989.72
2022-09-05T06:53:21.335Z,102010.94
2022-09-05T06:58:45.610Z,102018.13
2022-09-05T07:04:49.359Z,102014.25
2022-09-05T07:09:55.271Z,102032.69
2022-09-05T07:15:13.199Z,102033.78
2022-09-05T07:20:28.006Z,102032.34
2022-09-05T07:25:33.160Z,102028.78
2022-09-05T07:30:46.924Z,102032.84
2022-09-05T07:35:51.254Z,102032.03
2022-09-05T07:41:17.734Z,102033.56
2022-09-05T07:46:27.242Z,102033.56
2022-09-05T07:56:52.883Z,102041.22
2022-09-05T08:02:29.065Z,102041.88
2022-09-05T08:07:48.802Z,102043.00
2022-09-05T08:13:24.666Z,102041.50
2022-09-05T08:18:37.906Z,102041.69
2022-09-05T08:24:13.170Z,102040.28
2022-09-05T08:29:32.066Z,102031.22
2022-09-05T08:34:45.734Z,102021.63
2022-09-05T08:39:56.802Z,102026.31
2022-09-05T08:46:47.035Z,102032.13
2022-09-05T08:51:30.413Z,102022.03
2022-09-05T08:56:45.962Z,102022.34
2022-09-05T09:02:32.884Z,102011.25
2022-09-05T09:07:45.055Z,102006.91
2022-09-05T09:13:00.032Z,102002.44
2022-09-05T09:18:06.559Z,101986.06
2022-09-05T09:23:32.502Z,101986.75
2022-09-05T09:28:49.831Z,101986.06
2022-09-05T09:34:19.970Z,101983.06
2022-09-05T09:39:38.692Z,101983.59
2022-09-05T09:45:22.687Z,101983.94
2022-09-05T09:50:58.163Z,101986.13
2022-09-05T09:56:39.756Z,101990.19
2022-09-05T10:04:23.802Z,101982.22
2022-09-05T10:10:43.933Z,101979.56
2022-09-05T10:13:29.024Z,101974.19
2022-09-05T10:18:34.938Z,101964.59
2022-09-05T10:23:37.507Z,101963.47
2022-09-05T10:28:50.105Z,101962.25
2022-09-05T10:35:14.642Z,101968.75
2022-09-05T10:39:24.064Z,101955.41
2022-09-05T10:44:41.011Z,101957.03
2022-09-05T10:49:45.409Z,101957.34
2022-09-05T10:55:13.797Z,101955.88
2022-09-05T11:02:19.384Z,101949.69
2022-09-05T11:06:09.246Z,101947.53
2022-09-05T11:11:28.429Z,101946.91
2022-09-05T11:17:02.339Z,101940.50
2022-09-05T11:22:23.248Z,101941.06
2022-09-05T11:27:43.785Z,101939.47
2022-09-05T11:38:47.716Z,101934.63
2022-09-05T11:40:24.849Z,101932.03
2022-09-05T11:45:26.877Z,101924.91
2022-09-05T11:50:44.186Z,101914.56
2022-09-05T11:56:28.930Z,101915.41
2022-09-05T12:01:44.071Z,101912.22
2022-09-05T12:07:32.093Z,101908.53
2022-09-05T12:12:46.845Z,101903.44
2022-09-05T12:18:24.333Z,101901.47
2022-09-05T12:24:36.754Z,101904.88
2022-09-05T12:36:04.977Z,101891.50
2022-09-05T12:41:35.536Z,101882.19
2022-09-05T12:42:10.449Z,101900.78
2022-09-05T12:46:01.863Z,101879.88
2022-09-05T12:51:45.723Z,101873.72
2022-09-05T13:01:31.958Z,101868.00
2022-09-05T13:03:13.668Z,101874.47
2022-09-05T13:07:56.377Z,101878.44
2022-09-05T13:14:57.659Z,101861.44
2022-09-05T13:18:30.941Z,101874.50
2022-09-05T13:23:48.690Z,101875.13
2022-09-05T13:29:10.121Z,101869.53
2022-09-05T13:37:59.805Z,101864.34
2022-09-05T13:39:56.028Z,101853.44
2022-09-05T13:45:01.248Z,101850.06
2022-09-05T13:50:20.085Z,101844.06
2022-09-05T13:55:45.833Z,101837.69
2022-09-05T14:01:06.447Z,101847.16
2022-09-05T14:06:45.161Z,101847.88
2022-09-05T14:11:56.368Z,101843.31
2022-09-05T14:22:53.333Z,101835.16
2022-09-05T14:28:01.181Z,101838.81
2022-09-05T14:37:52.008Z,101816.38
2022-09-05T14:39:14.435Z,101833.84
2022-09-05T14:44:20.098Z,101834.97
2022-09-05T14:49:34.485Z,101824.47
2022-09-05T15:02:51.879Z,101816.63
2022-09-05T15:05:31.106Z,101812.22
2022-09-05T15:12:18.301Z,101808.34
2022-09-05T15:16:11.125Z,101814.09
2022-09-05T15:21:38.428Z,101813.66
2022-09-05T15:26:55.937Z,101813.94
2022-09-05T15:32:26.223Z,101805.47
2022-09-05T15:37:36.940Z,101799.75
2022-09-05T15:42:43.883Z,101794.75
2022-09-05T15:47:51.798Z,101798.47
2022-09-05T15:52:55.983Z,101789.38
2022-09-05T15:58:06.549Z,101799.91
2022-09-05T16:05:03.651Z,101798.06
2022-09-05T16:10:34.370Z,101785.38
2022-09-05T16:14:10.028Z,101785.09
2022-09-05T16:23:26.365Z,101770.31
2022-09-05T16:25:02.637Z,101776.56
2022-09-05T16:30:06.924Z,101774.69
2022-09-05T16:35:18.701Z,101776.72
2022-09-05T16:40:32.818Z,101783.63
2022-09-05T16:45:46.762Z,101783.41
2022-09-05T16:51:18.089Z,101793.22
2022-09-05T16:56:41.159Z,101785.09
2022-09-05T17:02:06.633Z,101796.16
2022-09-05T17:07:31.619Z,101791.94
2022-09-05T17:12:35.504Z,101787.72
2022-09-05T17:18:20.166Z,101776.38
2022-09-05T17:29:18.643Z,101791.28
2022-09-05T17:30:22.843Z,101794.16
2022-09-05T17:34:16.043Z,101791.81
2022-09-05T17:39:45.652Z,101797.91
2022-09-05T17:45:14.626Z,101799.34
2022-09-05T17:50:27.950Z,101809.50
2022-09-05T17:55:35.673Z,101803.25
2022-09-05T18:01:17.149Z,101803.78
2022-09-05T18:06:19.600Z,101816.69
2022-09-05T18:11:27.476Z,101829.34
2022-09-05T18:16:32.000Z,101824.66
2022-09-05T18:21:48.542Z,101817.47
2022-09-05T18:26:56.164Z,101820.19
2022-09-05T18:32:54.222Z,101823.47
2022-09-05T18:38:50.117Z,101831.09
2022-09-05T18:44:12.925Z,101824.47
2022-09-05T18:50:17.761Z,101828.72
2022-09-05T18:54:51.839Z,101835.28
2022-09-05T19:00:14.087Z,101839.81
2022-09-05T19:05:38.346Z,101842.84
2022-09-05T19:10:41.347Z,101834.97
2022-09-05T19:16:21.092Z,101839.34
2022-09-05T19:21:22.507Z,101843.81
2022-09-05T19:26:36.178Z,101824.94
2022-09-05T19:36:53.408Z,101836.72
2022-09-05T19:37:26.298Z,101839.78
2022-09-05T19:47:26.164Z,101836.88
2022-09-05T19:48:07.573Z,101836.63
2022-09-05T19:53:15.123Z,101840.59
2022-09-05T19:58:21.091Z,101835.91
2022-09-05T20:03:23.522Z,101839.28
2022-09-05T20:08:34.249Z,101834.97
2022-09-05T20:13:36.706Z,101836.06
2022-09-05T20:18:41.701Z,101837.19
2022-09-05T20:23:48.421Z,101839.09
2022-09-05T20:28:55.511Z,101829.91
2022-09-05T20:34:03.424Z,101839.59
2022-09-05T20:43:19.530Z,101824.19
2022-09-05T20:44:51.419Z,101825.84
2022-09-05T20:54:05.809Z,101824.13
2022-09-05T20:55:39.954Z,101822.59
2022-09-05T21:01:15.767Z,101815.78
2022-09-05T21:06:26.366Z,101817.69
2022-09-05T21:11:32.648Z,101823.44
2022-09-05T21:16:58.003Z,101823.59
2022-09-05T21:22:18.439Z,101829.38
2022-09-05T21:27:25.514Z,101825.97
2022-09-05T21:32:38.132Z,101817.88
2022-09-05T21:37:44.140Z,101824.53
2022-09-05T21:47:35.623Z,101821.69
2022-09-05T21:48:11.901Z,101820.78
2022-09-05T21:55:04.324Z,101832.22
2022-09-05T21:59:19.473Z,101821.91
2022-09-05T22:04:21.300Z,101823.75
2022-09-05T22:09:24.091Z,101816.31
2022-09-05T22:14:26.589Z,101810.88
2022-09-05T22:19:37.535Z,101812.16
2022-09-05T22:24:40.544Z,101818.59
2022-09-05T22:29:47.293Z,101819.81
2022-09-05T22:34:53.392Z,101816.09
2022-09-05T22:39:56.044Z,101807.59
2022-09-05T22:44:58.482Z,101804.56
2022-09-05T22:50:01.206Z,101807.97
2022-09-05T22:55:04.351Z,101812.03
2022-09-05T23:00:08.173Z,101807.06
2022-09-05T23:05:10.951Z,101809.78
2022-09-05T23:10:13.281Z,101817.41
2022-09-05T23:15:16.295Z,101807.47
2022-09-05T23:20:18.726Z,101792.09
2022-09-05T23:25:22.440Z,101802.84
2022-09-05T23:30:24.846Z,101796.44
2022-09-05T23:35:27.457Z,101793.94
2022-09-05T23:40:29.929Z,101801.28
2022-09-05T23:45:32.513Z,101803.22
2022-09-05T23:50:34.967Z,101778.09
2022-09-05T23:55:37.437Z,101784.84
